Terminal Aerodrome Forecast
Issued by NWS Cleveland, OH

Home | Current Version | Previous Version | Text Only | Print | Product List | Glossary On
Versions: 1 2 3 4 5 6 7 8 9 10 11 12 13 14
000
FTUS41 KCLE 202327
TAFTOL
TAF
KTOL 202327Z 2100/2124 26004KT P6SM SCT040
     FM210200 00000KT P6SM SCT120
     FM210700 VRB03KT 5SM BR SCT110
     FM211300 03005KT P6SM SCT035
     FM211700 10004KT P6SM SCT050=

USA.gov is the U.S. government's official web portal to all federal, state and local government web resources and services.